Time;durP1;ratioP1;P1;durP2;ratioP2;P2;SDS_P1;SDS_P2;PMS_P1;PMS_P2;Temp;Humidity;BMP_temperature;BMP_pressure;BME280_temperature;BME280_humidity;BME280_pressure;Samples;Min_cycle;Max_cycle;Signal;HPM_P1;HPM_P2
2022/09/15 00:01:39;;;;;;;2.20;1.20;;;12.30;99.90;;;;;;5032739;28;20170;-83
2022/09/15 00:04:05;;;;;;;3.47;0.67;;;12.40;99.90;;;;;;5032162;28;20480;-85
2022/09/15 00:06:31;;;;;;;2.50;0.70;;;12.40;99.90;;;;;;5032458;28;20416;-82
2022/09/15 00:08:58;;;;;;;6.50;0.93;;;12.50;99.90;;;;;;5031516;28;20431;-82
2022/09/15 00:11:27;;;;;;;3.47;0.63;;;12.50;99.90;;;;;;5031311;28;20433;-86
2022/09/15 00:13:53;;;;;;;6.63;1.23;;;12.60;99.90;;;;;;5032290;28;20484;-85
2022/09/15 00:16:21;;;;;;;6.37;0.97;;;12.60;99.90;;;;;;5032082;28;20467;-82
2022/09/15 00:18:47;;;;;;;4.20;0.60;;;12.60;99.90;;;;;;5031865;28;20490;-83
2022/09/15 00:21:19;;;;;;;4.30;0.63;;;12.60;99.90;;;;;;5032158;28;20424;-86
2022/09/15 00:23:45;;;;;;;2.83;0.50;;;12.70;99.90;;;;;;5032458;28;20473;-82
2022/09/15 00:26:13;;;;;;;1.00;0.43;;;12.80;99.90;;;;;;5032444;28;20508;-83
2022/09/15 00:28:39;;;;;;;2.17;0.50;;;12.90;99.90;;;;;;5032348;28;20184;-82
2022/09/15 00:31:08;;;;;;;4.20;0.20;;;12.90;99.90;;;;;;5026957;28;20430;-86
2022/09/15 00:33:33;;;;;;;1.07;0.30;;;13.00;99.90;;;;;;5027179;28;20429;-85
2022/09/15 00:36:03;;;;;;;2.20;0.67;;;13.00;99.90;;;;;;5047508;28;20724;-86
2022/09/15 00:38:28;;;;;;;3.33;0.30;;;13.00;99.90;;;;;;5025340;28;20229;-84
2022/09/15 00:40:56;;;;;;;3.97;0.60;;;13.10;99.90;;;;;;5014862;28;20450;-82
2022/09/15 00:43:54;;;;;;;3.43;0.20;;;13.10;99.90;;;;;;5031844;28;20222;-82
2022/09/15 00:46:26;;;;;;;1.33;0.50;;;13.30;99.90;;;;;;5006064;28;20413;-84
2022/09/15 00:49:05;;;;;;;1.47;0.53;;;13.40;99.90;;;;;;5030753;28;20427;-87
2022/09/15 00:51:55;;;;;;;0.90;0.20;;;13.60;99.90;;;;;;5032343;28;20948;-87
2022/09/15 00:54:30;;;;;;;0.70;0.60;;;13.70;99.90;;;;;;5031103;28;20435;-84
2022/09/15 00:56:59;;;;;;;0.93;0.30;;;13.70;99.90;;;;;;5032668;28;20486;-88
2022/09/15 00:59:28;;;;;;;6.07;0.73;;;13.70;99.90;;;;;;5032680;28;20452;-86
2022/09/15 01:02:02;;;;;;;4.23;0.50;;;13.80;99.90;;;;;;5032098;28;20491;-88
2022/09/15 01:04:27;;;;;;;0.93;0.30;;;13.80;99.90;;;;;;5032523;28;20468;-83
2022/09/15 01:06:59;;;;;;;2.93;0.20;;;13.70;99.90;;;;;;5032565;28;20444;-82
2022/09/15 01:09:37;;;;;;;1.07;0.37;;;13.80;99.90;;;;;;5032603;28;20635;-82
2022/09/15 01:12:08;;;;;;;2.10;0.30;;;13.70;99.90;;;;;;5032781;28;20420;-82
2022/09/15 01:14:34;;;;;;;1.17;0.20;;;13.70;99.90;;;;;;5032661;28;20410;-82
2022/09/15 01:17:21;;;;;;;1.10;0.30;;;13.70;99.90;;;;;;5030454;28;20414;-81
2022/09/15 01:20:27;;;;;;;2.30;0.20;;;13.70;99.90;;;;;;5032775;28;20167;-81
2022/09/15 01:23:09;;;;;;;1.50;0.33;;;13.70;99.90;;;;;;5035145;28;20491;-82
2022/09/15 01:25:42;;;;;;;1.40;0.60;;;13.70;99.90;;;;;;5035173;28;20440;-82
2022/09/15 01:28:36;;;;;;;0.90;0.20;;;13.70;99.90;;;;;;5036374;28;20483;-83
2022/09/15 01:31:22;;;;;;;2.50;0.70;;;13.70;99.90;;;;;;5036190;28;20401;-82
2022/09/15 01:34:14;;;;;;;0.70;0.20;;;13.70;99.90;;;;;;5034632;28;20458;-82
2022/09/15 01:36:51;;;;;;;2.00;0.20;;;13.70;99.90;;;;;;5034810;28;20470;-81
2022/09/15 01:39:24;;;;;;;1.90;0.30;;;13.80;99.90;;;;;;5036238;28;20435;-82
2022/09/15 01:42:02;;;;;;;1.73;0.30;;;13.80;99.90;;;;;;5036100;28;20494;-82
2022/09/15 01:44:37;;;;;;;0.60;0.20;;;13.80;99.90;;;;;;5036028;28;20935;-81
2022/09/15 01:47:06;;;;;;;0.93;0.30;;;13.80;99.90;;;;;;5035689;28;20412;-81
2022/09/15 01:49:54;;;;;;;1.43;0.40;;;13.80;99.90;;;;;;5035949;28;20520;-81
2022/09/15 01:52:22;;;;;;;3.70;0.40;;;13.80;99.90;;;;;;5035909;28;20411;-82
2022/09/15 01:54:52;;;;;;;0.90;0.40;;;13.80;99.90;;;;;;5035905;28;20409;-82
2022/09/15 01:57:21;;;;;;;1.10;0.40;;;13.90;99.90;;;;;;5035752;28;20425;-84
2022/09/15 01:59:51;;;;;;;1.00;0.40;;;13.80;99.90;;;;;;5035720;28;20418;-82
2022/09/15 02:02:19;;;;;;;6.13;0.20;;;13.80;99.90;;;;;;5035378;28;20413;-82
2022/09/15 02:04:54;;;;;;;1.97;0.40;;;13.80;99.90;;;;;;5035639;28;20415;-83
2022/09/15 02:07:46;;;;;;;2.20;0.30;;;13.80;99.90;;;;;;5035437;28;20436;-81
2022/09/15 02:10:42;;;;;;;1.13;0.33;;;13.80;99.90;;;;;;5034342;28;20425;-81
2022/09/15 02:13:15;;;;;;;1.80;0.30;;;13.80;99.90;;;;;;5033022;28;20938;-84
2022/09/15 02:15:46;;;;;;;1.20;0.20;;;13.80;99.90;;;;;;5035534;28;20514;-84
2022/09/15 02:18:16;;;;;;;1.23;0.30;;;13.80;99.90;;;;;;5035179;28;20486;-82
2022/09/15 02:20:57;;;;;;;4.97;0.67;;;13.80;99.90;;;;;;5035290;28;20449;-81
2022/09/15 02:23:29;;;;;;;2.00;0.40;;;13.80;99.90;;;;;;5035304;28;20472;-81
2022/09/15 02:26:07;;;;;;;1.87;0.80;;;13.80;99.90;;;;;;5035259;28;20402;-82
2022/09/15 02:28:36;;;;;;;1.07;0.37;;;13.80;99.90;;;;;;5035262;28;20911;-82
2022/09/15 02:31:05;;;;;;;1.57;0.40;;;13.80;99.90;;;;;;5035171;28;20423;-82
2022/09/15 02:33:41;;;;;;;2.50;0.40;;;13.80;99.90;;;;;;5034000;28;20409;-84
2022/09/15 02:36:08;;;;;;;1.10;0.50;;;13.70;99.90;;;;;;5033590;28;20462;-83
2022/09/15 02:38:41;;;;;;;6.23;0.50;;;13.70;99.90;;;;;;5035092;28;20770;-82
2022/09/15 02:41:06;;;;;;;1.57;0.30;;;13.70;99.90;;;;;;5035119;28;20543;-82
2022/09/15 02:43:32;;;;;;;1.13;0.40;;;13.70;99.90;;;;;;5033514;28;20555;-82
2022/09/15 02:45:58;;;;;;;2.73;0.60;;;13.70;99.90;;;;;;5033709;28;20163;-83
2022/09/15 02:48:24;;;;;;;1.87;0.70;;;13.70;99.90;;;;;;5033259;28;20506;-82
2022/09/15 02:50:49;;;;;;;4.30;0.30;;;13.80;99.90;;;;;;5034724;28;20170;-82
2022/09/15 02:53:15;;;;;;;1.80;0.37;;;13.80;99.90;;;;;;5034764;28;20180;-82
2022/09/15 02:55:40;;;;;;;2.67;0.47;;;13.80;99.90;;;;;;5034672;28;20173;-82
2022/09/15 02:58:06;;;;;;;2.00;0.60;;;13.70;99.90;;;;;;5034346;28;20259;-81
2022/09/15 03:00:31;;;;;;;2.50;0.50;;;13.70;99.90;;;;;;5034508;28;20697;-83
2022/09/15 03:02:57;;;;;;;1.73;0.20;;;13.70;99.90;;;;;;5034122;28;20261;-82
2022/09/15 03:05:28;;;;;;;1.77;0.40;;;13.60;99.90;;;;;;5034471;28;20257;-85
2022/09/15 03:07:54;;;;;;;3.40;0.63;;;13.50;99.90;;;;;;5034638;28;20175;-81
2022/09/15 03:10:20;;;;;;;1.30;0.20;;;13.50;99.90;;;;;;5033235;28;20812;-84
2022/09/15 03:12:52;;;;;;;2.00;0.43;;;13.40;99.90;;;;;;5034470;28;20457;-81
2022/09/15 03:15:20;;;;;;;2.87;0.50;;;13.50;99.90;;;;;;5034282;28;20426;-81
2022/09/15 03:17:46;;;;;;;1.17;0.30;;;13.40;99.90;;;;;;5033963;28;20414;-81
2022/09/15 03:20:15;;;;;;;1.23;0.40;;;13.40;99.90;;;;;;5034279;28;20434;-84
2022/09/15 03:22:41;;;;;;;2.07;0.40;;;13.40;99.90;;;;;;5033996;28;20486;-86
2022/09/15 03:25:07;;;;;;;4.43;0.57;;;13.40;99.90;;;;;;5034185;28;20417;-85
2022/09/15 03:27:33;;;;;;;2.83;0.47;;;13.30;99.90;;;;;;5033968;28;20199;-83
2022/09/15 03:29:58;;;;;;;0.90;0.20;;;13.30;99.90;;;;;;5032633;28;20421;-82
2022/09/15 03:32:24;;;;;;;3.03;0.60;;;13.30;99.90;;;;;;5033539;28;20442;-83
2022/09/15 03:34:49;;;;;;;1.53;0.53;;;13.30;99.90;;;;;;5032656;28;20178;-82
2022/09/15 03:37:15;;;;;;;3.20;0.50;;;13.30;99.90;;;;;;5033630;28;20317;-81
2022/09/15 03:39:41;;;;;;;1.33;0.53;;;13.30;99.90;;;;;;5032636;28;20180;-81
2022/09/15 03:42:06;;;;;;;1.60;0.43;;;13.30;99.90;;;;;;5033699;28;20253;-82
2022/09/15 03:44:32;;;;;;;1.97;0.27;;;13.40;99.90;;;;;;5033629;28;20177;-81
2022/09/15 03:46:57;;;;;;;0.80;0.30;;;13.30;99.90;;;;;;5032393;28;20220;-81
2022/09/15 03:49:29;;;;;;;1.03;0.33;;;13.40;99.90;;;;;;5033707;28;20189;-81
2022/09/15 03:51:55;;;;;;;1.60;0.20;;;13.40;99.90;;;;;;5032386;28;20179;-84
2022/09/15 03:54:20;;;;;;;5.67;0.73;;;13.40;99.90;;;;;;5033531;28;20447;-81
2022/09/15 03:56:50;;;;;;;2.63;0.40;;;13.40;99.90;;;;;;5033349;28;20431;-80
2022/09/15 03:59:17;;;;;;;1.20;0.40;;;13.40;99.90;;;;;;5033581;28;20167;-85
2022/09/15 04:01:44;;;;;;;1.67;0.30;;;13.40;99.90;;;;;;5033168;28;20415;-85
2022/09/15 04:04:10;;;;;;;3.73;0.80;;;13.40;99.90;;;;;;5032099;28;20476;-80
2022/09/15 04:06:35;;;;;;;1.43;0.20;;;13.40;99.90;;;;;;5033488;28;20544;-81
2022/09/15 04:09:01;;;;;;;1.10;0.30;;;13.30;99.90;;;;;;5033449;28;20171;-81
2022/09/15 04:11:27;;;;;;;3.03;0.23;;;13.20;99.90;;;;;;5033425;28;20204;-85
2022/09/15 04:13:54;;;;;;;1.93;0.33;;;13.20;99.90;;;;;;5043038;28;20205;-79
2022/09/15 04:16:22;;;;;;;0.80;0.37;;;13.20;99.90;;;;;;5035454;28;20511;-84
2022/09/15 04:18:48;;;;;;;5.63;0.90;;;13.20;99.90;;;;;;5033744;28;20179;-81
2022/09/15 04:21:16;;;;;;;1.63;0.70;;;13.20;99.90;;;;;;5033713;28;20847;-86
2022/09/15 04:23:43;;;;;;;1.67;0.20;;;13.20;99.90;;;;;;5033654;28;20482;-81
2022/09/15 04:26:32;;;;;;;1.30;0.40;;;13.20;99.90;;;;;;5033233;28;20409;-83
2022/09/15 04:29:00;;;;;;;2.90;0.37;;;13.20;99.90;;;;;;5033192;28;20420;-82
2022/09/15 04:31:26;;;;;;;4.43;0.50;;;13.20;99.90;;;;;;5032802;28;20410;-83
2022/09/15 04:33:54;;;;;;;0.60;0.30;;;13.20;99.90;;;;;;5033046;28;20913;-86
2022/09/15 04:36:22;;;;;;;1.53;0.33;;;13.20;99.90;;;;;;5032683;28;20210;-85
2022/09/15 04:38:49;;;;;;;2.83;0.37;;;13.20;99.90;;;;;;5031732;28;20437;-80
2022/09/15 04:41:15;;;;;;;0.70;0.20;;;13.20;99.90;;;;;;5032978;28;20475;-82
2022/09/15 04:43:42;;;;;;;1.17;0.33;;;13.10;99.90;;;;;;5032980;28;20470;-85
2022/09/15 04:46:08;;;;;;;1.87;0.63;;;13.10;99.90;;;;;;5032749;28;20412;-86
2022/09/15 04:48:34;;;;;;;1.10;0.40;;;13.10;99.90;;;;;;5033209;28;20456;-81
2022/09/15 04:51:09;;;;;;;2.60;0.83;;;13.10;99.90;;;;;;5033325;28;20413;-82
2022/09/15 04:53:35;;;;;;;3.90;0.70;;;13.00;99.90;;;;;;5033160;28;20626;-81
2022/09/15 04:56:09;;;;;;;3.80;0.80;;;13.00;99.90;;;;;;5033220;28;20416;-84
2022/09/15 04:58:36;;;;;;;1.87;0.50;;;13.00;99.90;;;;;;5035372;28;20417;-81
2022/09/15 05:01:22;;;;;;;2.00;0.20;;;13.10;99.90;;;;;;5036520;28;20455;-80
2022/09/15 05:03:48;;;;;;;1.30;0.40;;;13.10;99.90;;;;;;5036854;28;20471;-85
2022/09/15 05:06:16;;;;;;;3.27;0.47;;;13.10;99.90;;;;;;5037050;28;20412;-82
2022/09/15 05:08:42;;;;;;;5.07;0.40;;;13.10;99.90;;;;;;5037267;28;20805;-81
2022/09/15 05:11:10;;;;;;;1.13;0.30;;;13.20;99.90;;;;;;5037313;28;20413;-84
2022/09/15 05:13:39;;;;;;;4.20;0.40;;;13.10;99.90;;;;;;5036800;28;20641;-82
2022/09/15 05:16:13;;;;;;;4.37;0.60;;;13.20;99.90;;;;;;5036229;28;20427;-83
2022/09/15 05:18:39;;;;;;;1.27;0.30;;;13.20;99.90;;;;;;5036530;28;20807;-84
2022/09/15 05:21:07;;;;;;;2.40;0.30;;;13.20;99.90;;;;;;5036841;28;20407;-82
2022/09/15 05:23:34;;;;;;;1.53;0.40;;;13.20;99.90;;;;;;5036721;28;20483;-82
2022/09/15 05:26:02;;;;;;;1.13;0.20;;;13.30;99.90;;;;;;5035314;28;20513;-80
2022/09/15 05:28:28;;;;;;;0.60;0.20;;;13.30;99.90;;;;;;5030014;28;20815;-81
2022/09/15 05:30:57;;;;;;;1.70;0.20;;;13.30;99.90;;;;;;5025086;28;20425;-81
2022/09/15 05:33:23;;;;;;;2.00;0.20;;;13.30;99.90;;;;;;5026406;28;20178;-80
2022/09/15 05:35:56;;;;;;;2.47;0.30;;;13.30;99.90;;;;;;5027292;28;20433;-81
2022/09/15 05:38:22;;;;;;;2.60;0.60;;;13.30;99.90;;;;;;5034997;28;20926;-81
2022/09/15 05:40:48;;;;;;;2.00;0.30;;;13.30;99.90;;;;;;5035080;28;20478;-82
2022/09/15 05:43:14;;;;;;;1.47;0.23;;;13.30;99.90;;;;;;5034358;28;20518;-80
2022/09/15 05:45:41;;;;;;;3.20;0.53;;;13.30;99.90;;;;;;5035826;28;20176;-85
2022/09/15 05:48:08;;;;;;;2.87;0.50;;;13.20;99.90;;;;;;5035375;28;20429;-80
2022/09/15 05:50:33;;;;;;;2.23;0.20;;;13.30;99.90;;;;;;5034681;28;20815;-82
2022/09/15 05:52:59;;;;;;;0.73;0.20;;;13.40;99.90;;;;;;5034562;28;20549;-84
2022/09/15 05:55:24;;;;;;;2.53;0.33;;;13.40;99.90;;;;;;5035686;28;20177;-83
2022/09/15 05:57:50;;;;;;;1.03;0.40;;;13.40;99.90;;;;;;5035699;28;20174;-79
2022/09/15 06:00:17;;;;;;;1.30;0.40;;;13.50;99.90;;;;;;5035623;28;20175;-81
2022/09/15 06:02:43;;;;;;;6.70;0.77;;;13.50;99.90;;;;;;5035379;28;20209;-81
2022/09/15 06:05:08;;;;;;;1.57;0.27;;;13.50;99.90;;;;;;5035587;28;20878;-81
2022/09/15 06:07:35;;;;;;;1.20;0.20;;;13.50;99.90;;;;;;5035181;28;20178;-81
2022/09/15 06:10:01;;;;;;;1.53;0.27;;;13.50;99.90;;;;;;5034731;28;20547;-80
2022/09/15 06:12:26;;;;;;;3.23;0.40;;;13.50;99.90;;;;;;5035407;28;20468;-83
2022/09/15 06:14:52;;;;;;;0.70;0.20;;;13.50;99.90;;;;;;5035392;28;20549;-80
2022/09/15 06:17:17;;;;;;;1.20;0.20;;;13.50;99.90;;;;;;5034945;28;20799;-81
2022/09/15 06:19:43;;;;;;;1.20;0.20;;;13.50;99.90;;;;;;5035269;28;20322;-81
2022/09/15 06:22:09;;;;;;;1.43;0.23;;;13.50;99.90;;;;;;5035118;28;20170;-81
2022/09/15 06:24:34;;;;;;;1.20;0.20;;;13.60;99.90;;;;;;5035008;28;20203;-81
2022/09/15 06:27:03;;;;;;;1.90;0.40;;;13.70;99.90;;;;;;5035176;28;20175;-82
2022/09/15 06:29:28;;;;;;;5.43;0.37;;;14.10;99.90;;;;;;5033990;28;20181;-82
2022/09/15 06:31:55;;;;;;;0.70;0.20;;;14.70;99.90;;;;;;5034975;28;20408;-81
2022/09/15 06:34:21;;;;;;;2.17;0.30;;;15.00;99.90;;;;;;5035004;28;20179;-81
2022/09/15 06:36:46;;;;;;;2.10;0.20;;;15.20;99.90;;;;;;5034869;28;20459;-81
2022/09/15 06:39:13;;;;;;;3.73;0.50;;;16.20;99.90;;;;;;5034810;28;20254;-81
2022/09/15 06:41:39;;;;;;;1.13;0.20;;;17.50;20.40;;;;;;5035146;28;20526;-81
2022/09/15 06:44:04;;;;;;;2.33;0.57;;;16.30;99.90;;;;;;5033552;28;20473;-81
2022/09/15 06:46:30;;;;;;;2.73;0.70;;;15.40;99.90;;;;;;5033630;28;20219;-83
2022/09/15 06:48:55;;;;;;;0.83;0.20;;;16.20;99.90;;;;;;5034814;28;20180;-81
2022/09/15 06:51:23;;;;;;;1.67;0.20;;;18.90;1.00;;;;;;5034871;28;20203;-81
2022/09/15 06:53:49;;;;;;;2.60;0.20;;;17.50;1.00;;;;;;5034749;28;20642;-82
2022/09/15 06:56:18;;;;;;;5.10;0.30;;;16.60;99.90;;;;;;5034773;28;20509;-80
2022/09/15 06:58:44;;;;;;;5.77;0.83;;;15.70;99.90;;;;;;5034638;28;20435;-82
2022/09/15 07:01:28;;;;;;;1.00;0.20;;;15.40;99.90;;;;;;5034267;28;20423;-79
2022/09/15 07:03:55;;;;;;;4.27;0.40;;;14.80;99.90;;;;;;5034493;28;20467;-80
2022/09/15 07:06:21;;;;;;;1.73;0.37;;;14.50;99.90;;;;;;5034428;28;20411;-81
2022/09/15 07:08:48;;;;;;;1.33;0.30;;;14.30;99.90;;;;;;5034441;28;20424;-84
2022/09/15 07:11:15;;;;;;;3.37;0.60;;;14.20;99.90;;;;;;5034465;28;20507;-81
2022/09/15 07:13:41;;;;;;;3.87;0.20;;;14.30;99.90;;;;;;5034361;28;20415;-83
2022/09/15 07:16:09;;;;;;;2.30;1.10;;;14.30;99.90;;;;;;5034019;28;20408;-80
2022/09/15 07:18:35;;;;;;;2.00;0.20;;;14.50;99.90;;;;;;5034269;28;20479;-80
2022/09/15 07:21:04;;;;;;;4.20;0.43;;;14.70;99.90;;;;;;5033755;28;20904;-83
2022/09/15 07:23:30;;;;;;;2.03;0.40;;;16.80;99.90;;;;;;5034160;28;20207;-83
2022/09/15 07:26:10;;;;;;;1.83;0.57;;;19.10;95.00;;;;;;5034158;28;20466;-82
2022/09/15 07:28:36;;;;;;;3.63;0.63;;;21.50;1.00;;;;;;5034187;28;20190;-82
2022/09/15 07:31:04;;;;;;;4.93;0.73;;;20.90;99.90;;;;;;5032311;28;20450;-81
2022/09/15 07:33:30;;;;;;;4.43;0.60;;;19.40;1.00;;;;;;5034036;28;20423;-81
2022/09/15 07:35:56;;;;;;;4.53;0.90;;;17.60;99.90;;;;;;5032423;28;20452;-80
2022/09/15 07:38:21;;;;;;;1.43;0.33;;;17.10;1.00;;;;;;5032731;28;20451;-80
2022/09/15 07:40:48;;;;;;;1.77;0.30;;;18.90;1.00;;;;;;5033876;28;20640;-85
2022/09/15 07:43:14;;;;;;;0.93;0.20;;;21.60;99.90;;;;;;5033767;28;20309;-84
2022/09/15 07:45:39;;;;;;;1.47;0.20;;;19.00;1.00;;;;;;5033386;28;20424;-81
2022/09/15 07:48:05;;;;;;;1.47;0.20;;;17.40;99.90;;;;;;5033786;28;20423;-83
2022/09/15 07:50:31;;;;;;;1.50;0.20;;;16.40;1.00;;;;;;5033636;28;20681;-81
2022/09/15 07:52:56;;;;;;;2.50;0.40;;;15.80;99.90;;;;;;5033703;28;20170;-80
2022/09/15 07:55:22;;;;;;;2.83;0.50;;;15.50;99.90;;;;;;5033613;28;20227;-82
2022/09/15 07:58:01;;;;;;;4.67;1.03;;;15.30;99.90;;;;;;5033510;28;20186;-80
2022/09/15 08:00:27;;;;;;;3.57;0.40;;;15.20;99.90;;;;;;5033208;28;20462;-79
2022/09/15 08:02:53;;;;;;;7.47;0.57;;;15.10;99.90;;;;;;5033318;28;20550;-81
2022/09/15 08:05:22;;;;;;;2.20;0.50;;;15.10;99.90;;;;;;5033382;28;20188;-80
2022/09/15 08:07:48;;;;;;;2.63;0.30;;;15.40;99.90;;;;;;5033405;28;20421;-80
2022/09/15 08:10:14;;;;;;;2.13;0.20;;;15.70;99.90;;;;;;5033332;28;20481;-80
2022/09/15 08:12:39;;;;;;;2.57;0.33;;;16.40;99.90;;;;;;5033266;28;20506;-79
2022/09/15 08:15:05;;;;;;;2.00;0.97;;;19.00;99.90;;;;;;5033081;28;20171;-80
2022/09/15 08:17:34;;;;;;;2.77;0.30;;;21.20;1.00;;;;;;5032651;28;20722;-86
2022/09/15 08:19:59;;;;;;;2.03;0.20;;;22.60;99.90;;;;;;5033088;28;20682;-80
2022/09/15 08:22:25;;;;;;;3.00;0.47;;;21.30;99.90;;;;;;5033231;28;20494;-79
2022/09/15 08:24:51;;;;;;;0.90;0.20;;;22.20;99.90;;;;;;5033253;28;20180;-80
2022/09/15 08:27:16;;;;;;;2.30;0.20;;;21.90;99.90;;;;;;5033169;28;20166;-80
2022/09/15 08:29:42;;;;;;;3.33;0.40;;;21.50;99.90;;;;;;5033138;28;20243;-79
2022/09/15 08:32:07;;;;;;;2.23;0.30;;;23.00;99.90;;;;;;5032136;28;20257;-84
2022/09/15 08:34:33;;;;;;;2.60;0.30;;;21.70;99.90;;;;;;5031784;28;20639;-80
2022/09/15 08:36:58;;;;;;;1.47;0.20;;;22.50;99.90;;;;;;5031499;28;20313;-79
2022/09/15 08:39:24;;;;;;;1.13;0.20;;;21.30;99.90;;;;;;5032998;28;20175;-83
2022/09/15 08:41:52;;;;;;;2.10;0.33;;;19.80;1.00;;;;;;5032965;28;20737;-80
2022/09/15 08:44:44;;;;;;;1.70;0.20;;;19.60;1.00;;;;;;5032937;28;20198;-80
2022/09/15 08:47:15;;;;;;;2.60;0.20;;;20.70;1.00;;;;;;5047995;28;20409;-80
2022/09/15 08:49:52;;;;;;;1.00;0.20;;;21.10;99.90;;;;;;5032918;28;20508;-81
2022/09/15 08:52:20;;;;;;;1.37;0.20;;;21.50;99.90;;;;;;5033138;28;20832;-81
2022/09/15 08:54:49;;;;;;;1.73;0.30;;;21.80;99.90;;;;;;5033003;28;20435;-81
2022/09/15 08:57:18;;;;;;;1.37;0.20;;;21.40;99.90;;;;;;5033026;28;20475;-83
2022/09/15 08:59:46;;;;;;;2.20;0.33;;;21.80;99.90;;;;;;5031462;28;20433;-82
2022/09/15 09:02:12;;;;;;;3.60;0.50;;;22.60;99.90;;;;;;5032650;28;20940;-80
2022/09/15 09:04:56;;;;;;;1.27;0.20;;;23.20;99.90;;;;;;5033019;28;20472;-84
2022/09/15 09:07:24;;;;;;;1.07;0.27;;;23.60;99.90;;;;;;5032777;28;20221;-81
2022/09/15 09:10:08;;;;;;;1.40;0.20;;;22.80;99.90;;;;;;5032800;28;20825;-81
2022/09/15 09:13:11;;;;;;;4.90;0.20;;;21.50;99.90;;;;;;5032769;28;20943;-82
2022/09/15 09:15:45;;;;;;;2.03;0.30;;;22.80;99.90;;;;;;5031139;28;20435;-81
2022/09/15 09:18:29;;;;;;;1.13;0.20;;;21.90;99.90;;;;;;5032768;28;20567;-81
2022/09/15 09:21:04;;;;;;;2.03;0.20;;;23.90;99.90;;;;;;5032718;28;20429;-81
2022/09/15 09:23:32;;;;;;;4.47;0.70;;;25.50;93.70;;;;;;5032561;28;20558;-80
2022/09/15 09:26:00;;;;;;;1.20;0.20;;;25.00;58.00;;;;;;5047818;28;20413;-81
2022/09/15 09:29:00;;;;;;;1.37;0.30;;;24.90;61.50;;;;;;5032784;28;20523;-82
2022/09/15 09:31:27;;;;;;;1.33;0.20;;;23.00;48.20;;;;;;5021139;28;20425;-81
2022/09/15 09:34:10;;;;;;;1.03;0.33;;;22.70;68.30;;;;;;5032662;28;20777;-78
2022/09/15 09:36:36;;;;;;;5.63;0.60;;;21.30;99.90;;;;;;5032354;28;20961;-81
2022/09/15 09:39:03;;;;;;;1.20;0.20;;;23.70;80.30;;;;;;5032338;28;20470;-82
2022/09/15 09:41:35;;;;;;;1.43;0.30;;;22.70;81.60;;;;;;5032577;28;20257;-80
2022/09/15 09:44:03;;;;;;;1.77;0.40;;;22.60;99.90;;;;;;5033913;28;21025;-82
2022/09/15 09:46:30;;;;;;;1.30;0.20;;;24.20;91.30;;;;;;5035593;28;20417;-81
2022/09/15 09:49:03;;;;;;;1.50;0.20;;;22.60;99.90;;;;;;5036035;28;20784;-85
2022/09/15 09:51:51;;;;;;;1.60;0.20;;;23.80;81.20;;;;;;5036030;28;20436;-81
2022/09/15 09:54:19;;;;;;;2.57;0.20;;;23.00;99.90;;;;;;5036008;28;20498;-81
2022/09/15 09:56:49;;;;;;;2.83;0.20;;;21.90;99.90;;;;;;5035956;28;20413;-81
2022/09/15 09:59:34;;;;;;;2.70;0.40;;;20.70;99.90;;;;;;5035733;28;20409;-81
2022/09/15 10:02:24;;;;;;;2.53;0.20;;;19.70;1.00;;;;;;5035495;28;20491;-81
2022/09/15 10:04:51;;;;;;;1.50;0.20;;;18.70;1.00;;;;;;5035676;28;20449;-81
2022/09/15 10:07:25;;;;;;;1.73;0.43;;;17.80;99.90;;;;;;5035661;28;20411;-81
2022/09/15 10:09:59;;;;;;;3.67;0.50;;;16.90;99.90;;;;;;5035759;28;20920;-80
2022/09/15 10:12:37;;;;;;;0.83;0.20;;;16.20;99.90;;;;;;5034358;28;20467;-80
2022/09/15 10:15:06;;;;;;;2.13;0.20;;;15.80;99.90;;;;;;5035231;28;20443;-80
2022/09/15 10:17:34;;;;;;;0.40;0.20;;;15.70;99.90;;;;;;5030102;28;20425;-83
2022/09/15 10:20:02;;;;;;;1.33;0.20;;;15.70;99.90;;;;;;5023873;28;20778;-81
2022/09/15 10:22:37;;;;;;;2.27;1.60;;;15.90;99.90;;;;;;5021161;28;20428;-82
2022/09/15 10:25:22;;;;;;;2.30;0.20;;;16.40;99.90;;;;;;5022816;28;20787;-81
2022/09/15 10:28:09;;;;;;;0.87;0.17;;;17.20;99.90;;;;;;5026058;28;20859;-81
2022/09/15 10:30:35;;;;;;;1.33;0.20;;;18.10;34.10;;;;;;5024787;28;20421;-81
2022/09/15 10:33:30;;;;;;;1.27;0.20;;;19.90;99.90;;;;;;5023833;28;20905;-81
2022/09/15 10:36:20;;;;;;;3.07;0.30;;;20.60;1.00;;;;;;5022820;28;20433;-81
2022/09/15 10:39:07;;;;;;;1.90;0.20;;;22.00;1.00;;;;;;5024334;28;20413;-81
2022/09/15 10:41:41;;;;;;;1.23;0.20;;;20.90;99.90;;;;;;5024421;28;20424;-85
2022/09/15 10:44:30;;;;;;;1.00;0.20;;;22.20;1.00;;;;;;5023095;28;20469;-85
2022/09/15 10:47:13;;;;;;;1.73;0.20;;;23.00;99.90;;;;;;5024643;28;20831;-82
2022/09/15 10:49:57;;;;;;;0.83;0.20;;;23.30;99.90;;;;;;5024644;28;20408;-82
2022/09/15 10:52:33;;;;;;;1.67;0.20;;;23.50;99.90;;;;;;5023690;28;20490;-80
2022/09/15 10:55:30;;;;;;;3.03;0.30;;;23.50;99.90;;;;;;5023849;28;20806;-81
2022/09/15 10:58:18;;;;;;;2.33;0.30;;;23.90;99.90;;;;;;5019445;28;20515;-81
2022/09/15 11:01:24;;;;;;;1.43;0.20;;;24.10;99.90;;;;;;5023303;28;20545;-80
2022/09/15 11:04:29;;;;;;;1.53;0.30;;;24.00;99.90;;;;;;5024342;28;20531;-82
2022/09/15 11:07:28;;;;;;;1.73;0.20;;;23.30;99.90;;;;;;5022196;28;20410;-80
2022/09/15 11:10:02;;;;;;;1.37;0.20;;;21.60;1.00;;;;;;5024554;28;20441;-82
2022/09/15 11:12:52;;;;;;;1.03;0.20;;;22.60;99.90;;;;;;5023707;28;20501;-83
2022/09/15 11:15:26;;;;;;;2.27;0.30;;;22.90;99.90;;;;;;5021970;28;20412;-80
2022/09/15 11:18:08;;;;;;;0.93;0.20;;;23.30;99.90;;;;;;5022493;28;20776;-82
2022/09/15 11:20:42;;;;;;;1.03;0.20;;;23.60;99.90;;;;;;5022073;28;20914;-81
2022/09/15 11:23:23;;;;;;;1.70;0.40;;;23.80;99.90;;;;;;5021380;28;20463;-81
2022/09/15 11:25:56;;;;;;;1.10;0.20;;;24.00;99.90;;;;;;5021840;28;20413;-81
2022/09/15 11:28:26;;;;;;;1.27;0.20;;;24.40;93.10;;;;;;5023101;28;20760;-82
2022/09/15 11:31:04;;;;;;;1.80;0.20;;;24.50;76.10;;;;;;5021859;28;20464;-81
2022/09/15 11:33:59;;;;;;;1.47;0.20;;;24.20;60.00;;;;;;5022456;28;20409;-80
2022/09/15 11:36:40;;;;;;;1.90;0.20;;;23.90;69.90;;;;;;4986444;28;20538;-81
2022/09/15 11:39:18;;;;;;;2.20;0.20;;;23.00;45.00;;;;;;5023515;28;20845;-81
2022/09/15 11:42:07;;;;;;;1.17;0.20;;;23.20;77.00;;;;;;5044917;28;20920;-81
2022/09/15 11:44:40;;;;;;;1.80;0.20;;;21.80;99.90;;;;;;5023761;28;20559;-81
2022/09/15 11:47:15;;;;;;;2.53;0.20;;;20.80;99.90;;;;;;5021385;28;20422;-81
2022/09/15 11:49:55;;;;;;;1.33;0.27;;;20.20;99.90;;;;;;5022448;28;20427;-81
2022/09/15 11:52:45;;;;;;;0.73;0.20;;;19.50;99.90;;;;;;5016107;28;20828;-83
2022/09/15 11:55:46;;;;;;;0.97;0.30;;;18.90;99.90;;;;;;5013818;28;20422;-83
2022/09/15 11:58:37;;;;;;;6.23;3.50;;;18.80;51.30;;;;;;5013945;28;20549;-80
2022/09/15 12:01:09;;;;;;;8.23;3.10;;;18.20;1.00;;;;;;5012398;28;20422;-82
2022/09/15 12:03:35;;;;;;;6.40;3.50;;;18.20;1.00;;;;;;5013938;28;20468;-81
2022/09/15 12:06:23;;;;;;;0.97;0.20;;;18.40;1.00;;;;;;5013226;28;20418;-81
2022/09/15 12:08:55;;;;;;;1.07;0.20;;;18.50;1.00;;;;;;5012550;28;20176;-80
2022/09/15 12:11:25;;;;;;;0.60;0.20;;;18.80;99.90;;;;;;5014587;28;20471;-80
2022/09/15 12:13:52;;;;;;;0.47;0.20;;;19.60;99.90;;;;;;5014211;28;20765;-80
2022/09/15 12:16:19;;;;;;;1.53;0.40;;;20.70;99.90;;;;;;5013449;28;20422;-81
2022/09/15 12:18:54;;;;;;;2.30;0.30;;;21.80;1.00;;;;;;5013462;28;20422;-81
2022/09/15 12:21:55;;;;;;;1.17;0.23;;;22.20;99.90;;;;;;5012356;28;20421;-81
2022/09/15 12:25:04;;;;;;;1.70;0.30;;;22.70;99.90;;;;;;5013341;28;20595;-83
2022/09/15 12:27:39;;;;;;;0.77;0.30;;;22.80;99.90;;;;;;5010160;28;20417;-81
2022/09/15 12:30:05;;;;;;;1.93;0.30;;;22.10;99.90;;;;;;5011640;28;20787;-80
2022/09/15 12:32:34;;;;;;;2.60;0.70;;;22.90;99.90;;;;;;5018833;28;20791;-81
2022/09/15 12:35:15;;;;;;;0.40;0.20;;;23.60;99.90;;;;;;5021837;28;20921;-80
2022/09/15 12:37:46;;;;;;;2.10;0.30;;;23.50;99.90;;;;;;5023255;28;20580;-80
2022/09/15 12:40:32;;;;;;;2.40;0.50;;;22.90;99.40;;;;;;5022247;28;20930;-82
2022/09/15 12:43:15;;;;;;;2.87;0.50;;;21.70;99.90;;;;;;5023005;28;20464;-80
2022/09/15 12:45:51;;;;;;;1.43;0.33;;;21.00;99.90;;;;;;5023215;28;20434;-80
2022/09/15 12:48:22;;;;;;;0.93;0.20;;;20.60;99.90;;;;;;5023606;28;20419;-80
2022/09/15 12:50:54;;;;;;;0.80;0.20;;;20.60;99.90;;;;;;5015293;28;20413;-80
2022/09/15 12:53:32;;;;;;;3.17;0.30;;;20.40;99.90;;;;;;5019328;28;20406;-80
2022/09/15 12:56:04;;;;;;;2.50;0.30;;;20.00;99.90;;;;;;5019301;28;20774;-84
2022/09/15 12:58:43;;;;;;;2.10;0.30;;;20.00;1.00;;;;;;5021214;28;20463;-81
2022/09/15 13:01:18;;;;;;;1.83;0.20;;;19.70;1.00;;;;;;5021394;28;20922;-80
2022/09/15 13:03:49;;;;;;;0.93;0.20;;;19.40;1.00;;;;;;5020929;28;20845;-80
2022/09/15 13:06:29;;;;;;;0.50;0.30;;;19.30;1.00;;;;;;5019085;28;20425;-81
2022/09/15 13:09:01;;;;;;;4.10;0.20;;;19.50;1.00;;;;;;5020406;28;20426;-81
2022/09/15 13:11:35;;;;;;;2.03;0.20;;;20.30;99.90;;;;;;5025988;28;20971;-79
2022/09/15 13:14:07;;;;;;;2.83;0.50;;;20.40;99.90;;;;;;5022523;28;20428;-80